createdAt,value
2018-08-20T00:00:55.356Z,997.23
2018-08-20T00:01:55.394Z,997.20
2018-08-20T00:02:55.434Z,997.15
2018-08-20T00:03:55.474Z,997.19
2018-08-20T00:04:55.516Z,997.20
2018-08-20T00:05:55.552Z,997.18
2018-08-20T00:06:55.592Z,997.20
2018-08-20T00:07:55.634Z,997.23
2018-08-20T00:08:55.669Z,997.22
2018-08-20T00:09:55.709Z,997.26
2018-08-20T00:10:55.746Z,997.21
2018-08-20T00:11:55.785Z,997.25
2018-08-20T00:12:55.825Z,997.23
2018-08-20T00:13:55.866Z,997.23
2018-08-20T00:14:55.905Z,997.21
2018-08-20T00:15:55.943Z,997.17
2018-08-20T00:16:55.981Z,997.17
2018-08-20T00:17:56.020Z,997.19
2018-08-20T00:18:56.060Z,997.18
2018-08-20T00:19:56.098Z,997.18
2018-08-20T00:20:56.136Z,997.17
2018-08-20T00:21:56.179Z,997.15
2018-08-20T00:22:56.215Z,997.15
2018-08-20T00:23:56.253Z,997.14
2018-08-20T00:24:56.293Z,997.16
2018-08-20T00:25:56.332Z,997.14
2018-08-20T00:26:56.370Z,997.17
2018-08-20T00:27:56.410Z,997.16
2018-08-20T00:28:56.448Z,997.20
2018-08-20T00:29:56.487Z,997.19
2018-08-20T00:30:56.528Z,997.18
2018-08-20T00:31:56.668Z,997.17
2018-08-20T00:32:56.604Z,997.18
2018-08-20T00:33:56.645Z,997.17
2018-08-20T00:34:56.683Z,997.18
2018-08-20T00:35:56.721Z,997.17
2018-08-20T00:36:56.761Z,997.22
2018-08-20T00:37:56.801Z,997.18
2018-08-20T00:38:56.840Z,997.18
2018-08-20T00:39:56.877Z,997.20
2018-08-20T00:40:56.916Z,997.17
2018-08-20T00:41:56.955Z,997.16
2018-08-20T00:42:56.994Z,997.19
2018-08-20T00:43:57.037Z,997.16
2018-08-20T00:44:57.073Z,997.21
2018-08-20T00:45:57.115Z,997.20
2018-08-20T00:46:57.159Z,997.23
2018-08-20T00:47:57.190Z,997.20
2018-08-20T00:48:57.230Z,997.21
2018-08-20T00:49:57.271Z,997.24
2018-08-20T00:50:57.307Z,997.25
2018-08-20T00:51:57.345Z,997.23
2018-08-20T00:52:57.384Z,997.21
2018-08-20T00:53:57.432Z,997.23
2018-08-20T00:54:57.462Z,997.21
2018-08-20T00:55:57.500Z,997.23
2018-08-20T00:56:57.540Z,997.25
2018-08-20T00:57:57.580Z,997.22
2018-08-20T00:58:57.617Z,997.23
2018-08-20T00:59:57.656Z,997.20
2018-08-20T01:00:57.695Z,997.23
2018-08-20T01:01:57.734Z,997.21
2018-08-20T01:02:57.774Z,997.25
2018-08-20T01:03:57.812Z,997.28
2018-08-20T01:04:57.851Z,997.31
2018-08-20T01:05:57.889Z,997.27
2018-08-20T01:06:57.939Z,997.32
2018-08-20T01:07:57.968Z,997.31
2018-08-20T01:08:58.007Z,997.34
2018-08-20T01:09:58.046Z,997.33
2018-08-20T01:10:58.084Z,997.33
2018-08-20T01:11:58.123Z,997.33
2018-08-20T01:12:58.161Z,997.32
2018-08-20T01:13:58.201Z,997.32
2018-08-20T01:14:58.239Z,997.32
2018-08-20T01:15:58.279Z,997.29
2018-08-20T01:16:58.316Z,997.33
2018-08-20T01:17:58.406Z,997.33
2018-08-20T01:18:58.393Z,997.28
2018-08-20T01:19:58.436Z,997.28
2018-08-20T01:20:58.485Z,997.26
2018-08-20T01:21:58.511Z,997.27
2018-08-20T01:22:58.550Z,997.30
2018-08-20T01:23:58.589Z,997.27
2018-08-20T01:24:58.627Z,997.27
2018-08-20T01:25:58.717Z,997.27
2018-08-20T01:26:58.707Z,997.27
2018-08-20T01:27:58.747Z,997.27
2018-08-20T01:28:58.781Z,997.27
2018-08-20T01:29:58.820Z,997.29
2018-08-20T01:30:58.860Z,997.25
2018-08-20T01:31:58.905Z,997.28
2018-08-20T01:32:58.937Z,997.28
2018-08-20T01:33:58.977Z,997.23
2018-08-20T01:34:59.014Z,997.17
2018-08-20T01:35:59.058Z,997.19
2018-08-20T01:36:59.093Z,997.20
2018-08-20T01:37:59.133Z,997.21
2018-08-20T01:38:59.167Z,997.18
2018-08-20T01:39:59.207Z,997.20
2018-08-20T01:40:59.248Z,997.23
2018-08-20T01:41:59.285Z,997.21
2018-08-20T01:42:59.322Z,997.21
2018-08-20T01:43:59.365Z,997.19
2018-08-20T01:44:59.400Z,997.21
2018-08-20T01:45:59.442Z,997.22
2018-08-20T01:46:59.478Z,997.27
2018-08-20T01:47:59.527Z,997.26
2018-08-20T01:48:59.556Z,997.25
2018-08-20T01:49:59.596Z,997.24
2018-08-20T01:50:59.633Z,997.25
2018-08-20T01:51:59.672Z,997.26
2018-08-20T01:52:59.711Z,997.19
2018-08-20T01:53:59.750Z,997.19
2018-08-20T01:54:59.787Z,997.25
2018-08-20T01:55:59.827Z,997.26
2018-08-20T01:56:59.865Z,997.26
2018-08-20T01:57:59.904Z,997.24
2018-08-20T01:58:59.942Z,997.30
2018-08-20T01:59:59.981Z,997.26
2018-08-20T02:01:00.020Z,997.27
2018-08-20T02:02:00.059Z,997.26
2018-08-20T02:03:00.097Z,997.25
2018-08-20T02:04:00.141Z,997.22
2018-08-20T02:05:00.175Z,997.22
2018-08-20T02:06:00.216Z,997.21
2018-08-20T02:07:00.251Z,997.21
2018-08-20T02:08:00.290Z,997.18
2018-08-20T02:09:00.331Z,997.14
2018-08-20T02:10:00.368Z,997.16
2018-08-20T02:11:00.406Z,997.21
2018-08-20T02:12:00.444Z,997.18
2018-08-20T02:13:00.485Z,997.14
2018-08-20T02:14:00.524Z,997.12
2018-08-20T02:15:00.568Z,997.14
2018-08-20T02:16:00.608Z,997.10
2018-08-20T02:17:00.640Z,997.10
2018-08-20T02:18:00.677Z,997.09
2018-08-20T02:19:00.716Z,997.14
2018-08-20T02:20:00.754Z,997.11
2018-08-20T02:21:00.796Z,997.10
2018-08-20T02:22:00.833Z,997.08
2018-08-20T02:23:00.870Z,997.10
2018-08-20T02:24:00.909Z,997.07
2018-08-20T02:25:00.948Z,997.10
2018-08-20T02:26:00.985Z,997.06
2018-08-20T02:27:01.024Z,997.04
2018-08-20T02:28:01.063Z,997.06
2018-08-20T02:29:01.110Z,997.01
2018-08-20T02:30:01.141Z,997.03
2018-08-20T02:31:01.179Z,996.98
2018-08-20T02:32:01.217Z,997.01
2018-08-20T02:33:01.264Z,996.99
2018-08-20T02:34:01.295Z,997.00
2018-08-20T02:35:01.331Z,997.00
2018-08-20T02:36:01.377Z,996.97
2018-08-20T02:37:01.409Z,996.99
2018-08-20T02:38:01.449Z,996.95
2018-08-20T02:39:01.485Z,996.97
2018-08-20T02:40:01.525Z,996.96
2018-08-20T02:41:01.565Z,996.98
2018-08-20T02:42:01.605Z,996.93
2018-08-20T02:43:01.642Z,996.96
2018-08-20T02:44:01.680Z,996.93
2018-08-20T02:45:01.719Z,996.91
2018-08-20T02:46:01.759Z,996.94
2018-08-20T02:47:01.795Z,996.93
2018-08-20T02:48:01.838Z,996.90
2018-08-20T02:49:01.872Z,996.91
2018-08-20T02:50:01.916Z,996.87
2018-08-20T02:51:01.948Z,996.88
2018-08-20T02:52:01.991Z,996.85
2018-08-20T02:53:02.026Z,996.84
2018-08-20T02:54:02.063Z,996.85
2018-08-20T02:55:02.102Z,996.83
2018-08-20T02:56:02.141Z,996.83
2018-08-20T02:57:02.178Z,996.82
2018-08-20T02:58:02.219Z,996.82
2018-08-20T02:59:02.255Z,996.87
2018-08-20T03:00:02.295Z,996.84
2018-08-20T03:01:02.333Z,996.85
2018-08-20T03:02:02.397Z,996.80
2018-08-20T03:03:02.409Z,996.84
2018-08-20T03:04:02.447Z,996.82
2018-08-20T03:05:02.486Z,996.84
2018-08-20T03:06:02.528Z,996.80
2018-08-20T03:07:02.562Z,996.82
2018-08-20T03:08:02.603Z,996.80
2018-08-20T03:09:02.641Z,996.81
2018-08-20T03:10:02.681Z,996.77
2018-08-20T03:11:02.718Z,996.78
2018-08-20T03:12:02.756Z,996.75
2018-08-20T03:13:02.795Z,996.78
2018-08-20T03:14:02.834Z,996.76
2018-08-20T03:15:02.873Z,996.80
2018-08-20T03:16:02.909Z,996.79
2018-08-20T03:17:02.948Z,996.76
2018-08-20T03:18:02.988Z,996.80
2018-08-20T03:19:03.025Z,996.80
2018-08-20T03:20:03.064Z,996.79
2018-08-20T03:21:03.102Z,996.78
2018-08-20T03:22:03.142Z,996.81
2018-08-20T03:23:03.179Z,996.84
2018-08-20T03:24:03.222Z,996.79
2018-08-20T03:25:03.264Z,996.83
2018-08-20T03:26:03.294Z,996.80
2018-08-20T03:27:03.332Z,996.78
2018-08-20T03:28:03.370Z,996.77
2018-08-20T03:29:03.410Z,996.75
2018-08-20T03:30:03.448Z,996.74
2018-08-20T03:31:03.487Z,996.75
2018-08-20T03:32:03.527Z,996.74
2018-08-20T03:33:03.565Z,996.72
2018-08-20T03:34:03.606Z,996.71
2018-08-20T03:35:03.643Z,996.71
2018-08-20T03:36:03.678Z,996.74
2018-08-20T03:37:03.717Z,996.74
2018-08-20T03:38:03.756Z,996.72
2018-08-20T03:39:03.794Z,996.70
2018-08-20T03:40:03.835Z,996.72
2018-08-20T03:41:03.879Z,996.68
2018-08-20T03:42:03.914Z,996.67
2018-08-20T03:43:03.947Z,996.67
2018-08-20T03:44:03.986Z,996.67
2018-08-20T03:45:04.025Z,996.70
2018-08-20T03:46:04.067Z,996.69
2018-08-20T03:47:04.100Z,996.69
2018-08-20T03:48:04.142Z,996.69
2018-08-20T03:49:04.179Z,996.68
2018-08-20T03:50:04.219Z,996.71
2018-08-20T03:51:04.253Z,996.72
2018-08-20T03:52:04.292Z,996.67
2018-08-20T03:53:04.332Z,996.65
2018-08-20T03:54:04.370Z,996.70
2018-08-20T03:55:04.407Z,996.65
2018-08-20T03:56:04.446Z,996.66
2018-08-20T03:57:04.485Z,996.65
2018-08-20T03:58:04.524Z,996.67
2018-08-20T03:59:04.560Z,996.64
2018-08-20T04:00:04.599Z,996.67
2018-08-20T04:01:04.640Z,996.67
2018-08-20T04:02:04.675Z,996.68
2018-08-20T04:03:04.714Z,996.67
2018-08-20T04:04:04.751Z,996.70
2018-08-20T04:05:04.822Z,996.71
2018-08-20T04:06:04.921Z,996.72
2018-08-20T04:07:04.866Z,996.72
2018-08-20T04:08:04.906Z,996.69
2018-08-20T04:09:04.944Z,996.72
2018-08-20T04:10:04.981Z,996.71
2018-08-20T04:11:05.027Z,996.70
2018-08-20T04:12:05.060Z,996.74
2018-08-20T04:13:05.096Z,996.71
2018-08-20T04:14:05.134Z,996.74
2018-08-20T04:15:05.175Z,996.72
2018-08-20T04:16:05.211Z,996.72
2018-08-20T04:17:05.310Z,996.74
2018-08-20T04:18:05.293Z,996.72
2018-08-20T04:19:05.325Z,996.76
2018-08-20T04:20:05.367Z,996.74
2018-08-20T04:21:05.402Z,996.75
2018-08-20T04:22:05.441Z,996.74
2018-08-20T04:23:05.477Z,996.72
2018-08-20T04:24:05.517Z,996.76
2018-08-20T04:25:05.553Z,996.74
2018-08-20T04:26:05.593Z,996.81
2018-08-20T04:27:05.630Z,996.78
2018-08-20T04:28:05.674Z,996.75
2018-08-20T04:29:05.711Z,996.77
2018-08-20T04:30:05.747Z,996.74
2018-08-20T04:31:05.787Z,996.77
2018-08-20T04:32:05.820Z,996.77
2018-08-20T04:33:05.859Z,996.81
2018-08-20T04:34:05.898Z,996.79
2018-08-20T04:35:05.937Z,996.80
2018-08-20T04:36:05.977Z,996.78
2018-08-20T04:37:06.026Z,996.76
2018-08-20T04:38:06.051Z,996.79
2018-08-20T04:39:06.089Z,996.81
2018-08-20T04:40:06.129Z,996.85
2018-08-20T04:41:06.165Z,996.88
2018-08-20T04:42:06.234Z,996.91
2018-08-20T04:43:06.243Z,996.90
2018-08-20T04:44:06.281Z,996.94
2018-08-20T04:45:06.320Z,996.93
2018-08-20T04:46:06.358Z,996.93
2018-08-20T04:47:06.396Z,996.94
2018-08-20T04:48:06.435Z,996.98
2018-08-20T04:49:06.472Z,997.00
2018-08-20T04:50:06.675Z,996.99
2018-08-20T04:51:06.783Z,997.01
2018-08-20T04:52:06.587Z,997.03
2018-08-20T04:53:06.625Z,997.05
2018-08-20T04:54:06.663Z,997.06
2018-08-20T04:55:06.711Z,997.04
2018-08-20T04:56:06.742Z,997.08
2018-08-20T04:57:06.780Z,997.01
2018-08-20T04:58:06.817Z,997.00
2018-08-20T04:59:06.905Z,997.08
2018-08-20T05:00:06.894Z,997.08
2018-08-20T05:01:06.940Z,997.08
2018-08-20T05:02:06.970Z,997.12
2018-08-20T05:03:07.008Z,997.11
2018-08-20T05:04:07.169Z,997.15
2018-08-20T05:05:07.095Z,997.16
2018-08-20T05:06:07.124Z,997.14
2018-08-20T05:07:07.161Z,997.16
2018-08-20T05:08:07.199Z,997.11
2018-08-20T05:09:07.273Z,997.20
2018-08-20T05:10:07.293Z,997.13
2018-08-20T05:11:07.316Z,997.20
2018-08-20T05:12:07.355Z,997.20
2018-08-20T05:13:07.444Z,997.20
2018-08-20T05:14:07.444Z,997.21
2018-08-20T05:15:07.469Z,997.20
2018-08-20T05:16:07.508Z,997.23
2018-08-20T05:17:07.546Z,997.21
2018-08-20T05:18:07.602Z,997.24
2018-08-20T05:19:07.629Z,997.21
2018-08-20T05:20:07.714Z,997.28
2018-08-20T05:21:07.702Z,997.27
2018-08-20T05:22:07.741Z,997.32
2018-08-20T05:23:07.780Z,997.33
2018-08-20T05:24:07.820Z,997.32
2018-08-20T05:25:07.855Z,997.35
2018-08-20T05:26:07.896Z,997.36
2018-08-20T05:27:07.942Z,997.39
2018-08-20T05:28:07.974Z,997.35
2018-08-20T05:29:08.020Z,997.38
2018-08-20T05:30:08.050Z,997.39
2018-08-20T05:31:08.089Z,997.42
2018-08-20T05:32:08.128Z,997.42
2018-08-20T05:33:08.175Z,997.45
2018-08-20T05:34:08.207Z,997.49
2018-08-20T05:35:08.243Z,997.46
2018-08-20T05:36:08.282Z,997.48
2018-08-20T05:37:08.326Z,997.50
2018-08-20T05:38:08.360Z,997.55
2018-08-20T05:39:08.399Z,997.51
2018-08-20T05:40:08.439Z,997.52
2018-08-20T05:41:08.479Z,997.54
2018-08-20T05:42:08.516Z,997.55
2018-08-20T05:43:08.557Z,997.55
2018-08-20T05:44:08.595Z,997.62
2018-08-20T05:45:08.645Z,997.61
2018-08-20T05:46:08.675Z,997.58
2018-08-20T05:47:08.714Z,997.63
2018-08-20T05:48:08.752Z,997.62
2018-08-20T05:49:08.792Z,997.63
2018-08-20T05:50:08.835Z,997.63
2018-08-20T05:51:08.871Z,997.67
2018-08-20T05:52:08.910Z,997.63
2018-08-20T05:53:08.958Z,997.65
2018-08-20T05:54:08.997Z,997.74
2018-08-20T05:55:09.028Z,997.71
2018-08-20T05:56:09.067Z,997.72
2018-08-20T05:57:09.108Z,997.71
2018-08-20T05:58:09.145Z,997.71
2018-08-20T05:59:09.227Z,997.75
2018-08-20T06:00:09.224Z,997.76
2018-08-20T06:01:09.270Z,997.74
2018-08-20T06:02:09.304Z,997.76
2018-08-20T06:03:09.342Z,997.76
2018-08-20T06:04:09.383Z,997.78
2018-08-20T06:05:09.422Z,997.77
2018-08-20T06:06:09.462Z,997.75
2018-08-20T06:07:09.502Z,997.73
2018-08-20T06:08:09.539Z,997.80
2018-08-20T06:09:09.584Z,997.80
2018-08-20T06:10:09.619Z,997.82
2018-08-20T06:11:09.667Z,997.84
2018-08-20T06:12:09.698Z,997.79
2018-08-20T06:13:09.739Z,997.74
2018-08-20T06:14:09.778Z,997.77
2018-08-20T06:15:09.837Z,997.82
2018-08-20T06:16:09.859Z,997.84
2018-08-20T06:17:09.896Z,997.83
2018-08-20T06:18:09.938Z,997.83
2018-08-20T06:19:09.976Z,997.81
2018-08-20T06:20:10.022Z,997.85
2018-08-20T06:21:10.055Z,997.83
2018-08-20T06:22:10.094Z,997.81
2018-08-20T06:23:10.134Z,997.84
2018-08-20T06:24:10.176Z,997.84
2018-08-20T06:25:10.215Z,997.82
2018-08-20T06:26:10.254Z,997.83
2018-08-20T06:27:10.294Z,997.81
2018-08-20T06:28:10.338Z,997.84
2018-08-20T06:29:10.377Z,997.84
2018-08-20T06:30:10.413Z,997.84
2018-08-20T06:31:10.454Z,997.84
2018-08-20T06:32:10.493Z,997.88
2018-08-20T06:33:10.532Z,997.90
2018-08-20T06:34:10.572Z,997.94
2018-08-20T06:35:10.612Z,997.96
2018-08-20T06:36:10.651Z,998.02
2018-08-20T06:37:10.692Z,997.99
2018-08-20T06:38:10.731Z,997.99
2018-08-20T06:39:10.769Z,998.00
2018-08-20T06:40:10.811Z,998.02
2018-08-20T06:41:10.851Z,997.99
2018-08-20T06:42:10.896Z,998.02
2018-08-20T06:43:10.934Z,998.02
2018-08-20T06:44:10.971Z,998.03
2018-08-20T06:45:11.011Z,998.01
2018-08-20T06:46:11.052Z,998.02
2018-08-20T06:47:11.093Z,998.02
2018-08-20T06:48:11.131Z,997.99
2018-08-20T06:49:11.171Z,997.98
2018-08-20T06:50:11.213Z,998.00
2018-08-20T06:51:11.261Z,997.98
2018-08-20T06:52:11.294Z,997.99
2018-08-20T06:53:11.330Z,998.00
2018-08-20T06:54:11.372Z,998.00
2018-08-20T06:55:11.411Z,997.95
2018-08-20T06:56:11.461Z,997.95
2018-08-20T06:57:11.490Z,998.00
2018-08-20T06:58:11.537Z,997.97
2018-08-20T06:59:11.571Z,997.97
2018-08-20T07:00:11.612Z,998.00
2018-08-20T07:01:11.652Z,997.98
2018-08-20T07:02:11.698Z,998.00
2018-08-20T07:03:11.732Z,997.92
2018-08-20T07:04:11.772Z,997.96
2018-08-20T07:05:11.813Z,997.96
2018-08-20T07:06:11.854Z,997.92
2018-08-20T07:07:11.892Z,997.94
2018-08-20T07:08:11.932Z,997.95
2018-08-20T07:09:11.980Z,998.01
2018-08-20T07:10:12.012Z,997.98
2018-08-20T07:11:12.055Z,998.03
2018-08-20T07:12:12.099Z,998.03
2018-08-20T07:13:12.134Z,998.05
2018-08-20T07:14:12.183Z,998.02
2018-08-20T07:15:12.216Z,998.03
2018-08-20T07:16:12.255Z,998.06
2018-08-20T07:17:12.296Z,998.11
2018-08-20T07:18:12.337Z,998.09
2018-08-20T07:19:12.378Z,998.11
2018-08-20T07:20:12.419Z,998.09
2018-08-20T07:21:12.458Z,998.13
2018-08-20T07:22:12.503Z,998.09
2018-08-20T07:23:12.541Z,998.08
2018-08-20T07:24:12.581Z,998.09
2018-08-20T07:25:12.621Z,998.10
2018-08-20T07:26:12.663Z,998.12
2018-08-20T07:27:12.705Z,998.15
2018-08-20T07:28:12.743Z,998.12
2018-08-20T07:29:12.793Z,998.16
2018-08-20T07:30:12.826Z,998.15
2018-08-20T07:31:12.866Z,998.16
2018-08-20T07:32:12.908Z,998.18
2018-08-20T07:33:12.951Z,998.13
2018-08-20T07:34:12.990Z,998.14
2018-08-20T07:35:13.031Z,998.17
2018-08-20T07:36:13.072Z,998.19
2018-08-20T07:37:13.112Z,998.19
2018-08-20T07:38:13.154Z,998.23
2018-08-20T07:39:13.194Z,998.25
2018-08-20T07:40:13.236Z,998.21
2018-08-20T07:41:13.279Z,998.22
2018-08-20T07:42:13.319Z,998.20
2018-08-20T07:43:13.359Z,998.20
2018-08-20T07:44:13.400Z,998.19
2018-08-20T07:45:13.442Z,998.23
2018-08-20T07:46:13.482Z,998.23
2018-08-20T07:47:13.522Z,998.24
2018-08-20T07:48:13.565Z,998.24
2018-08-20T07:49:13.621Z,998.22
2018-08-20T07:50:13.649Z,998.30
2018-08-20T07:51:13.687Z,998.28
2018-08-20T07:52:13.731Z,998.27
2018-08-20T07:53:13.782Z,998.35
2018-08-20T07:54:13.814Z,998.38
2018-08-20T07:55:13.855Z,998.34
2018-08-20T07:56:13.897Z,998.36
2018-08-20T07:57:13.939Z,998.34
2018-08-20T07:58:13.984Z,998.33
2018-08-20T07:59:14.019Z,998.31
2018-08-20T08:00:14.061Z,998.34
2018-08-20T08:01:14.104Z,998.29
2018-08-20T08:02:14.194Z,998.31
2018-08-20T08:03:14.184Z,998.31
2018-08-20T08:04:14.226Z,998.26
2018-08-20T08:05:14.277Z,998.24
2018-08-20T08:06:14.309Z,998.28
2018-08-20T08:07:14.350Z,998.29
2018-08-20T08:08:14.395Z,998.29
2018-08-20T08:09:14.440Z,998.29
2018-08-20T08:10:14.479Z,998.31
2018-08-20T08:11:14.519Z,998.29
2018-08-20T08:12:14.569Z,998.36
2018-08-20T08:13:14.601Z,998.35
2018-08-20T08:14:14.681Z,998.31
2018-08-20T08:15:14.692Z,998.31
2018-08-20T08:16:14.726Z,998.32
2018-08-20T08:17:14.768Z,998.31
2018-08-20T08:18:14.811Z,998.35
2018-08-20T08:19:14.851Z,998.33
2018-08-20T08:20:14.891Z,998.35
2018-08-20T08:21:14.935Z,998.36
2018-08-20T08:22:14.975Z,998.37
2018-08-20T08:23:15.018Z,998.39
2018-08-20T08:24:15.059Z,998.38
2018-08-20T08:25:15.104Z,998.40
2018-08-20T08:26:15.143Z,998.42
2018-08-20T08:27:15.185Z,998.36
2018-08-20T08:28:15.235Z,998.41
2018-08-20T08:29:15.269Z,998.45
2018-08-20T08:30:15.310Z,998.41
2018-08-20T08:31:15.351Z,998.40
2018-08-20T08:32:15.394Z,998.40
2018-08-20T08:33:15.435Z,998.39
2018-08-20T08:34:15.480Z,998.44
2018-08-20T08:35:15.521Z,998.45
2018-08-20T08:36:15.559Z,998.45
2018-08-20T08:37:15.601Z,998.42
2018-08-20T08:38:15.645Z,998.40
2018-08-20T08:39:15.686Z,998.40
2018-08-20T08:40:15.726Z,998.41
2018-08-20T08:41:15.772Z,998.45
2018-08-20T08:42:15.811Z,998.42
2018-08-20T08:43:15.853Z,998.41
2018-08-20T08:44:15.897Z,998.39
2018-08-20T08:45:15.937Z,998.40
2018-08-20T08:46:15.982Z,998.40
2018-08-20T08:47:16.037Z,998.44
2018-08-20T08:48:16.060Z,998.41
2018-08-20T08:49:16.103Z,998.39
2018-08-20T08:50:16.148Z,998.41
2018-08-20T08:51:16.189Z,998.41
2018-08-20T08:52:16.233Z,998.42
2018-08-20T08:53:16.281Z,998.42
2018-08-20T08:54:16.319Z,998.38
2018-08-20T08:55:16.355Z,998.41
2018-08-20T08:56:16.396Z,998.40
2018-08-20T08:57:16.438Z,998.39
2018-08-20T08:58:16.483Z,998.38
2018-08-20T08:59:16.524Z,998.38
2018-08-20T09:00:16.565Z,998.41
2018-08-20T09:01:16.610Z,998.44
2018-08-20T09:02:16.657Z,998.39
2018-08-20T09:03:16.691Z,998.44
2018-08-20T09:04:16.732Z,998.42
2018-08-20T09:05:16.775Z,998.45
2018-08-20T09:06:16.826Z,998.46
2018-08-20T09:07:16.858Z,998.43
2018-08-20T09:08:16.901Z,998.43
2018-08-20T09:09:16.944Z,998.47
2018-08-20T09:10:16.986Z,998.46
2018-08-20T09:11:17.035Z,998.44
2018-08-20T09:12:17.069Z,998.47
2018-08-20T09:13:17.113Z,998.46
2018-08-20T09:14:17.155Z,998.49
2018-08-20T09:15:17.195Z,998.49
2018-08-20T09:16:17.238Z,998.52
2018-08-20T09:17:17.279Z,998.54
2018-08-20T09:18:17.333Z,998.53
2018-08-20T09:19:17.364Z,998.53
2018-08-20T09:20:17.408Z,998.55
2018-08-20T09:21:17.457Z,998.54
2018-08-20T09:22:17.492Z,998.51
2018-08-20T09:23:17.532Z,998.55
2018-08-20T09:24:17.576Z,998.51
2018-08-20T09:25:17.626Z,998.58
2018-08-20T09:26:17.661Z,998.61
2018-08-20T09:27:17.705Z,998.58
2018-08-20T09:28:17.747Z,998.54
2018-08-20T09:29:17.789Z,998.59
2018-08-20T09:30:17.834Z,998.62
2018-08-20T09:31:17.874Z,998.61
2018-08-20T09:32:17.963Z,998.65
2018-08-20T09:33:17.965Z,998.66
2018-08-20T09:34:18.004Z,998.64
2018-08-20T09:35:18.045Z,998.62
2018-08-20T09:36:18.139Z,998.56
2018-08-20T09:37:18.132Z,998.51
2018-08-20T09:38:18.225Z,998.53
2018-08-20T09:39:18.218Z,998.51
2018-08-20T09:40:18.262Z,998.54
2018-08-20T09:41:18.307Z,998.55
2018-08-20T09:42:18.348Z,998.58
2018-08-20T09:43:18.391Z,998.55
2018-08-20T09:44:18.436Z,998.56
2018-08-20T09:45:18.484Z,998.48
2018-08-20T09:46:18.521Z,998.53
2018-08-20T09:47:18.564Z,998.52
2018-08-20T09:48:18.611Z,998.57
2018-08-20T09:49:18.654Z,998.60
2018-08-20T09:50:18.700Z,998.60
2018-08-20T09:51:18.748Z,998.62
2018-08-20T09:52:18.787Z,998.66
2018-08-20T09:53:18.889Z,998.70
2018-08-20T09:54:18.871Z,998.66
2018-08-20T09:55:18.915Z,998.59
2018-08-20T09:56:18.959Z,998.52
2018-08-20T09:57:19.000Z,998.51
2018-08-20T09:58:19.045Z,998.49
2018-08-20T09:59:19.089Z,998.48
2018-08-20T10:00:19.141Z,998.46
2018-08-20T10:01:19.177Z,998.52
2018-08-20T10:02:19.222Z,998.52
2018-08-20T10:03:19.263Z,998.52
2018-08-20T10:04:19.310Z,998.48
2018-08-20T10:05:19.359Z,998.47
2018-08-20T10:06:19.397Z,998.48
2018-08-20T10:07:19.490Z,998.50
2018-08-20T10:08:19.488Z,998.57
2018-08-20T10:09:19.531Z,998.61
2018-08-20T10:10:19.578Z,998.57
2018-08-20T10:11:19.624Z,998.59
2018-08-20T10:12:19.663Z,998.58
2018-08-20T10:13:19.711Z,998.52
2018-08-20T10:14:19.756Z,998.56
2018-08-20T10:15:19.795Z,998.53
2018-08-20T10:16:19.840Z,998.50
2018-08-20T10:17:19.894Z,998.45
2018-08-20T10:18:19.930Z,998.43
2018-08-20T10:19:19.974Z,998.38
2018-08-20T10:20:20.019Z,998.33
2018-08-20T10:21:20.067Z,998.26
2018-08-20T10:22:20.108Z,998.27
2018-08-20T10:23:20.150Z,998.27
2018-08-20T10:24:20.194Z,998.31
2018-08-20T10:25:20.241Z,998.28
2018-08-20T10:26:20.286Z,998.35
2018-08-20T10:27:20.330Z,998.32
2018-08-20T10:28:20.375Z,998.31
2018-08-20T10:29:20.425Z,998.33
2018-08-20T10:30:20.462Z,998.33
2018-08-20T10:31:20.506Z,998.40
2018-08-20T10:32:20.551Z,998.44
2018-08-20T10:33:20.606Z,998.48
2018-08-20T10:34:20.641Z,998.46
2018-08-20T10:35:20.710Z,998.48
2018-08-20T10:36:20.728Z,998.49
2018-08-20T10:37:20.774Z,998.49
2018-08-20T10:38:20.819Z,998.43
2018-08-20T10:39:20.863Z,998.44
2018-08-20T10:40:20.906Z,998.41
2018-08-20T10:41:20.953Z,998.38
2018-08-20T10:42:21.010Z,998.35
2018-08-20T10:43:21.038Z,998.28
2018-08-20T10:44:21.090Z,998.26
2018-08-20T10:45:21.130Z,998.24
2018-08-20T10:46:21.173Z,998.26
2018-08-20T10:47:21.225Z,998.21
2018-08-20T10:48:21.263Z,998.19
2018-08-20T10:49:21.308Z,998.13
2018-08-20T10:50:21.361Z,998.14
2018-08-20T10:51:21.395Z,998.14
2018-08-20T10:52:21.452Z,998.20
2018-08-20T10:53:21.486Z,998.24
2018-08-20T10:54:21.530Z,998.25
2018-08-20T10:55:21.575Z,998.26
2018-08-20T10:56:21.689Z,998.27
2018-08-20T10:57:21.667Z,998.27
2018-08-20T10:58:21.712Z,998.28
2018-08-20T10:59:21.753Z,998.28
2018-08-20T11:00:21.800Z,998.28
2018-08-20T11:01:21.846Z,998.30
2018-08-20T11:02:21.890Z,998.31
2018-08-20T11:03:21.933Z,998.37
2018-08-20T11:04:21.978Z,998.37
2018-08-20T11:05:22.025Z,998.34
2018-08-20T11:06:22.070Z,998.34
2018-08-20T11:07:22.115Z,998.36
2018-08-20T11:08:22.198Z,998.33
2018-08-20T11:09:22.205Z,998.33
2018-08-20T11:10:22.249Z,998.33
2018-08-20T11:11:22.303Z,998.33
2018-08-20T11:12:22.339Z,998.31
2018-08-20T11:13:22.394Z,998.28
2018-08-20T11:14:22.432Z,998.30
2018-08-20T11:15:22.487Z,998.29
2018-08-20T11:16:22.531Z,998.34
2018-08-20T11:17:22.567Z,998.28
2018-08-20T11:18:22.640Z,998.28
2018-08-20T11:19:22.661Z,998.28
2018-08-20T11:20:22.702Z,998.25
2018-08-20T11:21:22.758Z,998.27
2018-08-20T11:22:22.801Z,998.27
2018-08-20T11:23:22.841Z,998.27
2018-08-20T11:24:22.885Z,998.29
2018-08-20T11:25:22.931Z,998.28
2018-08-20T11:26:22.977Z,998.25
2018-08-20T11:27:23.026Z,998.25
2018-08-20T11:28:23.076Z,998.22
2018-08-20T11:29:23.114Z,998.14
2018-08-20T11:30:23.240Z,998.11
2018-08-20T11:31:23.207Z,998.09
2018-08-20T11:32:23.258Z,998.07
2018-08-20T11:33:23.299Z,998.09
2018-08-20T11:34:23.357Z,998.10
2018-08-20T11:35:23.394Z,998.10
2018-08-20T11:36:23.433Z,998.12
2018-08-20T11:37:23.490Z,998.12
2018-08-20T11:38:23.529Z,998.14
2018-08-20T11:39:23.571Z,998.16
2018-08-20T11:40:23.616Z,998.11
2018-08-20T11:41:23.663Z,998.11
2018-08-20T11:42:23.721Z,998.09
2018-08-20T11:43:23.765Z,998.09
2018-08-20T11:44:23.798Z,998.12
2018-08-20T11:45:23.844Z,998.11
2018-08-20T11:46:23.902Z,998.10
2018-08-20T11:47:23.934Z,998.09
2018-08-20T11:48:24.012Z,998.11
2018-08-20T11:49:24.033Z,998.14
2018-08-20T11:50:24.071Z,998.13
2018-08-20T11:51:24.117Z,998.09
2018-08-20T11:52:24.161Z,998.15
2018-08-20T11:53:24.208Z,998.13
2018-08-20T11:54:24.254Z,998.14
2018-08-20T11:55:24.297Z,998.11
2018-08-20T11:56:24.341Z,998.14
2018-08-20T11:57:24.390Z,998.18
2018-08-20T11:58:24.443Z,998.20
2018-08-20T11:59:24.477Z,998.23
2018-08-20T12:00:24.524Z,998.21
2018-08-20T12:01:24.570Z,998.21
2018-08-20T12:02:24.614Z,998.23
2018-08-20T12:03:24.659Z,998.25
2018-08-20T12:04:24.708Z,998.22
2018-08-20T12:05:24.753Z,998.21
2018-08-20T12:06:24.796Z,998.19
2018-08-20T12:07:24.936Z,998.19
2018-08-20T12:08:24.884Z,998.20
2018-08-20T12:09:24.932Z,998.21
2018-08-20T12:10:24.976Z,998.15
2018-08-20T12:11:25.020Z,998.18
2018-08-20T12:12:25.066Z,998.21
2018-08-20T12:13:25.119Z,998.20
2018-08-20T12:14:25.157Z,998.22
2018-08-20T12:15:25.201Z,998.25
2018-08-20T12:16:25.248Z,998.24
2018-08-20T12:17:25.294Z,998.23
2018-08-20T12:18:25.337Z,998.23
2018-08-20T12:19:25.384Z,998.23
2018-08-20T12:20:25.433Z,998.21
2018-08-20T12:21:25.479Z,998.17
2018-08-20T12:22:25.556Z,998.20
2018-08-20T12:23:25.570Z,998.14
2018-08-20T12:24:25.613Z,998.19
2018-08-20T12:25:25.657Z,998.18
2018-08-20T12:26:25.707Z,998.24
2018-08-20T12:27:25.752Z,998.23
2018-08-20T12:28:25.796Z,998.28
2018-08-20T12:29:25.844Z,998.31